createdAt,value
2019-02-26T00:03:39.274Z,19.70
2019-02-26T00:04:39.271Z,20.60
2019-02-26T00:05:39.258Z,19.90
2019-02-26T00:06:39.251Z,20.10
2019-02-26T00:07:39.251Z,20.30
2019-02-26T00:08:39.249Z,20.80
2019-02-26T00:09:39.231Z,19.70
2019-02-26T00:10:39.224Z,20.50
2019-02-26T00:11:40.242Z,20.70
2019-02-26T00:12:39.210Z,19.90
2019-02-26T00:13:39.199Z,20.40
2019-02-26T00:14:39.193Z,20.30
2019-02-26T00:15:40.547Z,20.70
2019-02-26T00:16:39.974Z,20.20
2019-02-26T00:17:43.717Z,20.50
2019-02-26T00:18:39.163Z,19.60
2019-02-26T00:19:39.154Z,21.10
2019-02-26T00:20:41.292Z,20.10
2019-02-26T00:21:39.140Z,20.10
2019-02-26T00:22:41.115Z,19.50
2019-02-26T00:24:42.663Z,20.80
2019-02-26T00:25:41.567Z,20.10
2019-02-26T00:26:43.484Z,20.10
2019-02-26T00:27:41.550Z,20.00
2019-02-26T00:28:43.232Z,19.90
2019-02-26T00:29:41.536Z,20.30
2019-02-26T00:30:42.466Z,21.60
2019-02-26T00:31:43.231Z,19.90
2019-02-26T00:32:41.513Z,19.90
2019-02-26T00:33:41.509Z,20.50
2019-02-26T00:34:41.499Z,20.70
2019-02-26T00:35:43.349Z,20.60
2019-02-26T00:36:41.482Z,20.80
2019-02-26T00:37:41.476Z,20.40
2019-02-26T00:38:42.685Z,20.40
2019-02-26T00:39:41.462Z,21.00
2019-02-26T00:40:43.192Z,20.60
2019-02-26T00:41:41.450Z,21.00
2019-02-26T00:42:41.437Z,20.30
2019-02-26T00:43:41.435Z,20.80
2019-02-26T00:44:41.430Z,20.60
2019-02-26T00:45:41.421Z,20.80
2019-02-26T00:46:41.411Z,21.10
2019-02-26T00:47:43.347Z,20.80
2019-02-26T00:48:43.006Z,20.70
2019-02-26T00:49:41.972Z,20.40
2019-02-26T00:50:41.378Z,21.20
2019-02-26T00:51:44.376Z,20.90
2019-02-26T00:52:41.366Z,21.60
2019-02-26T00:53:41.365Z,20.50
2019-02-26T00:54:41.364Z,21.80
2019-02-26T00:55:41.346Z,21.30
2019-02-26T00:56:41.335Z,22.10
2019-02-26T00:57:43.035Z,21.70
2019-02-26T00:58:42.328Z,21.20
2019-02-26T00:59:43.610Z,21.30
2019-02-26T01:00:41.307Z,22.20
2019-02-26T01:01:44.045Z,21.30
2019-02-26T01:02:41.288Z,21.70
2019-02-26T01:03:43.081Z,21.10
2019-02-26T01:04:42.008Z,21.90
2019-02-26T01:05:43.090Z,20.60
2019-02-26T01:06:41.272Z,21.40
2019-02-26T01:07:42.125Z,21.50
2019-02-26T01:08:43.065Z,21.10
2019-02-26T01:09:41.244Z,21.80
2019-02-26T01:10:41.927Z,21.60
2019-02-26T01:11:42.907Z,21.00
2019-02-26T01:12:42.591Z,21.10
2019-02-26T01:13:41.209Z,21.90
2019-02-26T01:14:41.839Z,21.20
2019-02-26T01:15:41.194Z,21.90
2019-02-26T01:16:42.048Z,21.30
2019-02-26T01:17:42.198Z,21.90
2019-02-26T01:18:42.253Z,21.90
2019-02-26T01:20:41.153Z,21.30
2019-02-26T01:21:41.145Z,21.50
2019-02-26T01:22:42.870Z,21.90
2019-02-26T01:24:41.120Z,22.10
2019-02-26T01:26:27.341Z,21.60
2019-02-26T01:27:23.517Z,21.90
2019-02-26T01:28:24.835Z,20.20
2019-02-26T01:29:25.288Z,22.00
2019-02-26T01:30:26.234Z,21.00
2019-02-26T01:31:24.620Z,21.90
2019-02-26T01:32:24.877Z,22.00
2019-02-26T01:33:24.628Z,22.00
2019-02-26T01:34:23.460Z,21.10
2019-02-26T01:35:23.459Z,21.90
2019-02-26T01:36:24.947Z,21.90
2019-02-26T01:37:25.359Z,21.90
2019-02-26T02:07:30.599Z,21.90
2019-02-26T02:08:29.926Z,23.20
2019-02-26T02:09:29.899Z,22.10
2019-02-26T02:11:31.231Z,23.20
2019-02-26T02:12:31.917Z,22.40
2019-02-26T02:13:30.678Z,22.10
2019-02-26T02:14:29.858Z,22.20
2019-02-26T03:08:55.314Z,21.60
2019-02-26T03:09:55.306Z,21.90
2019-02-26T03:10:55.298Z,22.40
2019-02-26T03:11:55.288Z,22.20
2019-02-26T03:14:59.992Z,21.60
2019-02-26T03:15:59.258Z,21.80
2019-02-26T03:16:57.697Z,21.60
2019-02-26T03:21:08.444Z,22.30
2019-02-26T03:22:09.943Z,22.00
2019-02-26T04:29:44.109Z,22.40
2019-02-26T04:30:44.629Z,22.00
2019-02-26T04:31:44.576Z,21.20
2019-02-26T04:32:43.598Z,22.50
2019-02-26T04:33:43.209Z,21.90
2019-02-26T04:34:43.198Z,21.10
2019-02-26T04:35:44.888Z,22.30
2019-02-26T04:36:44.823Z,22.30
2019-02-26T04:37:43.172Z,21.70
2019-02-26T04:56:03.030Z,21.20
2019-02-26T04:57:01.661Z,22.70
2019-02-26T05:23:55.653Z,21.80
2019-02-26T05:25:59.739Z,22.00
2019-02-26T05:26:54.789Z,22.40
2019-02-26T05:27:54.766Z,23.10
2019-02-26T05:28:54.750Z,22.60
2019-02-26T05:29:54.937Z,22.10
2019-02-26T05:30:54.733Z,22.00
2019-02-26T05:59:26.136Z,22.20
2019-02-26T06:00:29.291Z,22.70
2019-02-26T06:01:27.856Z,22.70
2019-02-26T06:02:26.103Z,22.30
2019-02-26T06:03:26.103Z,22.00
2019-02-26T06:04:26.096Z,22.50
2019-02-26T06:05:26.257Z,23.10
2019-02-26T06:06:26.068Z,22.40
2019-02-26T06:07:28.104Z,21.80
2019-02-26T06:08:29.582Z,23.00
2019-02-26T06:10:36.094Z,24.10
2019-02-26T06:11:38.628Z,23.70
2019-02-26T06:12:38.232Z,24.20
2019-02-26T06:13:38.262Z,24.00
2019-02-26T06:14:37.211Z,24.00
2019-02-26T06:15:36.048Z,24.00
2019-02-26T06:16:36.048Z,23.90
2019-02-26T06:17:40.673Z,23.90
2019-02-26T06:18:36.019Z,22.80
2019-02-26T06:19:37.743Z,23.90
2019-02-26T06:20:36.605Z,24.60
2019-02-26T06:21:39.596Z,25.20
2019-02-26T06:22:35.987Z,24.10
2019-02-26T06:23:36.692Z,23.80
2019-02-26T06:24:37.987Z,25.00
2019-02-26T06:25:35.955Z,25.50
2019-02-26T06:26:37.668Z,23.80
2019-02-26T06:30:05.946Z,24.00
2019-02-26T06:31:01.604Z,24.60
2019-02-26T06:32:03.027Z,24.20
2019-02-26T06:33:04.065Z,25.90
2019-02-26T06:34:03.899Z,25.30
2019-02-26T06:35:01.665Z,25.70
2019-02-26T06:36:02.402Z,24.80
2019-02-26T06:37:01.549Z,25.10
2019-02-26T06:38:02.133Z,24.10
2019-02-26T06:39:03.762Z,23.70
2019-02-26T06:40:03.126Z,24.90
2019-02-26T06:41:01.509Z,24.00
2019-02-26T06:42:03.021Z,24.50
2019-02-26T06:43:01.492Z,24.30
2019-02-26T06:44:01.494Z,24.30
2019-02-26T06:45:03.425Z,24.80
2019-02-26T06:46:02.669Z,23.90
2019-02-26T06:47:02.622Z,23.80
2019-02-26T06:48:01.442Z,23.70
2019-02-26T06:49:01.439Z,23.80
2019-02-26T06:50:02.961Z,23.50
2019-02-26T06:51:02.707Z,22.20
2019-02-26T06:52:01.408Z,24.00
2019-02-26T06:53:04.391Z,23.50
2019-02-26T06:54:01.388Z,22.90
2019-02-26T06:55:03.569Z,22.70
2019-02-26T06:56:01.367Z,22.70
2019-02-26T06:57:01.363Z,22.10
2019-02-26T06:58:01.352Z,22.90
2019-02-26T06:59:02.920Z,24.20
2019-02-26T07:00:04.006Z,23.20
2019-02-26T07:01:01.327Z,24.00
2019-02-26T07:02:01.315Z,22.60
2019-02-26T07:03:02.632Z,24.10
2019-02-26T07:04:01.297Z,23.40
2019-02-26T07:05:01.289Z,23.40
2019-02-26T07:06:04.113Z,23.50
2019-02-26T07:07:01.928Z,24.40
2019-02-26T07:08:02.185Z,23.80
2019-02-26T07:09:01.254Z,23.60
2019-02-26T07:10:01.245Z,23.80
2019-02-26T07:11:01.243Z,23.60
2019-02-26T07:12:01.224Z,23.50
2019-02-26T07:13:02.224Z,22.80
2019-02-26T07:14:03.101Z,23.40
2019-02-26T07:15:01.201Z,23.10
2019-02-26T07:16:04.601Z,23.70
2019-02-26T07:17:01.180Z,24.10
2019-02-26T07:18:04.413Z,23.80
2019-02-26T07:19:03.737Z,23.60
2019-02-26T07:20:03.179Z,24.00
2019-02-26T07:21:01.144Z,24.90
2019-02-26T07:22:01.137Z,25.20
2019-02-26T07:23:01.130Z,25.70
2019-02-26T07:24:03.252Z,25.50
2019-02-26T07:25:01.108Z,25.50
2019-02-26T07:26:01.100Z,25.50
2019-02-26T07:27:02.465Z,24.90
2019-02-26T07:28:02.860Z,24.90
2019-02-26T07:29:03.355Z,25.70
2019-02-26T07:30:01.074Z,25.50
2019-02-26T07:31:02.698Z,24.90
2019-02-26T07:52:19.462Z,21.50
2019-02-26T07:59:54.073Z,20.60
2019-02-26T08:00:54.086Z,20.90
2019-02-26T08:01:54.052Z,20.00
2019-02-26T08:02:56.908Z,21.10
2019-02-26T08:03:54.036Z,20.80
2019-02-26T08:04:54.030Z,19.70
2019-02-26T08:05:54.018Z,19.40
2019-02-26T08:06:56.666Z,19.80
2019-02-26T08:07:56.429Z,18.70
2019-02-26T08:08:54.001Z,18.90
2019-02-26T08:09:53.987Z,18.60
2019-02-26T08:10:53.983Z,18.80
2019-02-26T08:11:53.975Z,19.20
2019-02-26T08:12:53.966Z,20.50
2019-02-26T08:13:54.753Z,20.70
2019-02-26T08:14:53.949Z,20.10
2019-02-26T08:15:55.142Z,20.00
2019-02-26T08:29:05.110Z,19.20
2019-02-26T08:30:03.403Z,18.70
2019-02-26T08:31:05.346Z,19.20
2019-02-26T08:41:22.129Z,17.80
2019-02-26T08:42:22.124Z,18.70
2019-02-26T08:43:22.112Z,17.90
2019-02-26T08:44:22.105Z,17.40
2019-02-26T08:45:23.622Z,17.40
2019-02-26T08:50:36.810Z,18.00
2019-02-26T08:51:36.041Z,18.60
2019-02-26T08:52:36.031Z,18.20
2019-02-26T08:53:36.024Z,17.70
2019-02-26T08:54:36.019Z,18.00
2019-02-26T08:55:36.010Z,18.50
2019-02-26T08:56:36.856Z,18.00
2019-02-26T08:57:35.999Z,18.80
2019-02-26T08:58:35.991Z,17.50
2019-02-26T08:59:35.988Z,18.20
2019-02-26T09:00:35.978Z,17.80
2019-02-26T09:01:35.973Z,17.70
2019-02-26T09:02:35.966Z,17.30
2019-02-26T09:03:40.650Z,16.50
2019-02-26T09:04:37.887Z,16.40
2019-02-26T09:05:36.796Z,18.00
2019-02-26T09:06:35.940Z,17.90
2019-02-26T09:07:37.548Z,17.00
2019-02-26T09:08:37.993Z,18.10
2019-02-26T09:09:35.932Z,17.60
2019-02-26T09:10:36.414Z,16.90
2019-02-26T09:11:36.934Z,16.10
2019-02-26T09:12:35.912Z,16.00
2019-02-26T09:13:38.287Z,16.10
2019-02-26T09:14:37.618Z,16.10
2019-02-26T09:15:36.635Z,16.20
2019-02-26T09:16:35.885Z,16.30
2019-02-26T09:17:37.093Z,16.20
2019-02-26T09:18:38.218Z,15.80
2019-02-26T09:19:37.850Z,15.50
2019-02-26T09:20:35.878Z,15.80
2019-02-26T09:21:36.940Z,15.80
2019-02-26T09:22:35.855Z,15.30
2019-02-26T09:23:35.853Z,15.30
2019-02-26T09:24:35.845Z,15.10
2019-02-26T09:25:36.852Z,15.90
2019-02-26T09:26:35.845Z,15.80
2019-02-26T09:27:42.526Z,15.40
2019-02-26T09:28:35.823Z,15.80
2019-02-26T09:29:36.803Z,15.10
2019-02-26T09:30:37.919Z,15.10
2019-02-26T09:31:35.812Z,15.20
2019-02-26T09:32:38.018Z,16.00
2019-02-26T09:33:38.144Z,15.50
2019-02-26T09:34:39.350Z,16.20
2019-02-26T09:35:35.792Z,15.60
2019-02-26T09:36:35.785Z,16.10
2019-02-26T09:37:35.782Z,15.90
2019-02-26T09:38:35.786Z,15.70
2019-02-26T09:39:36.487Z,15.40
2019-02-26T09:40:35.782Z,15.50
2019-02-26T09:41:37.743Z,15.50
2019-02-26T09:42:35.760Z,16.30
2019-02-26T09:43:36.172Z,15.80
2019-02-26T09:44:35.940Z,15.70
2019-02-26T09:45:35.747Z,14.90
2019-02-26T09:46:36.437Z,15.40
2019-02-26T09:47:35.738Z,15.60
2019-02-26T09:48:36.543Z,15.10
2019-02-26T09:49:35.942Z,15.60
2019-02-26T09:50:36.802Z,15.60
2019-02-26T09:51:37.450Z,15.40
2019-02-26T09:52:35.717Z,15.70
2019-02-26T09:53:35.713Z,15.80
2019-02-26T09:54:40.370Z,15.30
2019-02-26T09:55:35.703Z,15.70
2019-02-26T09:56:35.697Z,15.20
2019-02-26T09:57:35.698Z,15.10
2019-02-26T09:58:37.586Z,15.50
2019-02-26T09:59:36.573Z,15.10
2019-02-26T10:00:35.683Z,15.70
2019-02-26T10:01:37.716Z,16.40
2019-02-26T10:02:35.675Z,15.90
2019-02-26T10:03:38.559Z,15.70
2019-02-26T10:04:35.668Z,15.70
2019-02-26T10:05:35.672Z,15.80
2019-02-26T10:06:37.914Z,15.90
2019-02-26T10:07:38.701Z,15.20
2019-02-26T10:08:35.654Z,15.70
2019-02-26T10:09:37.543Z,16.00
2019-02-26T10:10:39.150Z,16.30
2019-02-26T10:11:35.645Z,16.70
2019-02-26T10:12:37.045Z,15.90
2019-02-26T10:13:35.636Z,15.70
2019-02-26T10:14:36.568Z,16.20
2019-02-26T10:15:37.459Z,16.70
2019-02-26T10:16:35.634Z,17.10
2019-02-26T10:17:37.695Z,16.20
2019-02-26T10:18:35.621Z,17.60
2019-02-26T10:19:37.715Z,17.40
2019-02-26T10:20:35.615Z,17.70
2019-02-26T10:21:37.513Z,17.20
2019-02-26T10:22:36.172Z,18.10
2019-02-26T10:23:35.619Z,17.80
2019-02-26T10:24:38.005Z,18.60
2019-02-26T10:25:38.594Z,18.80
2019-02-26T10:26:36.640Z,18.00
2019-02-26T10:27:36.188Z,19.20
2019-02-26T10:28:39.373Z,19.90
2019-02-26T10:29:38.878Z,19.40
2019-02-26T10:30:38.711Z,20.30
2019-02-26T10:31:35.587Z,20.70
2019-02-26T10:32:35.582Z,21.00
2019-02-26T10:33:37.938Z,20.50
2019-02-26T10:34:35.576Z,20.60
2019-02-26T10:35:36.229Z,21.40
2019-02-26T10:36:40.641Z,20.70
2019-02-26T10:37:36.821Z,21.00
2019-02-26T10:38:36.536Z,21.50
2019-02-26T10:39:35.573Z,22.20
2019-02-26T10:40:50.139Z,21.80
2019-02-26T10:41:36.849Z,20.90
2019-02-26T10:42:39.824Z,20.80
2019-02-26T10:43:35.560Z,20.50
2019-02-26T10:44:35.564Z,20.90
2019-02-26T10:45:38.720Z,21.30
2019-02-26T10:46:37.142Z,21.10
2019-02-26T10:47:35.551Z,21.90
2019-02-26T10:48:35.545Z,21.70
2019-02-26T10:49:35.550Z,20.50
2019-02-26T10:50:37.288Z,20.60
2019-02-26T10:51:35.545Z,20.70
2019-02-26T10:52:35.541Z,20.40
2019-02-26T10:53:35.557Z,20.90
2019-02-26T10:54:40.182Z,22.00
2019-02-26T10:55:39.326Z,20.90
2019-02-26T10:56:39.303Z,20.40
2019-02-26T10:58:17.946Z,20.90
2019-02-26T10:59:19.534Z,20.40
2019-02-26T11:00:18.478Z,19.80
2019-02-26T11:01:22.699Z,20.40
2019-02-26T11:02:20.258Z,20.20
2019-02-26T11:03:20.116Z,19.70
2019-02-26T11:04:17.935Z,19.90
2019-02-26T11:05:21.525Z,19.40
2019-02-26T11:06:19.185Z,20.00
2019-02-26T11:07:17.937Z,20.20
2019-02-26T11:08:20.561Z,19.90
2019-02-26T11:09:21.835Z,20.50
2019-02-26T11:10:20.242Z,20.10
2019-02-26T11:11:18.946Z,18.60
2019-02-26T11:12:20.095Z,19.80
2019-02-26T11:13:20.204Z,19.30
2019-02-26T11:14:19.464Z,20.00
2019-02-26T11:15:17.940Z,19.20
2019-02-26T11:16:24.874Z,19.00
2019-02-26T11:17:20.451Z,19.90
2019-02-26T11:18:20.546Z,19.40
2019-02-26T11:19:17.930Z,19.40
2019-02-26T11:20:18.870Z,19.50
2019-02-26T11:21:17.924Z,18.60
2019-02-26T11:22:20.471Z,19.90
2019-02-26T11:23:17.921Z,19.80
2019-02-26T11:24:17.916Z,19.40
2019-02-26T11:25:18.445Z,20.00
2019-02-26T11:26:18.715Z,19.40
2019-02-26T11:27:17.920Z,19.30
2019-02-26T11:28:17.919Z,19.20
2019-02-26T11:29:17.918Z,18.70
2019-02-26T11:30:20.475Z,19.40
2019-02-26T11:31:20.490Z,19.10
2019-02-26T11:32:17.950Z,18.40
2019-02-26T11:33:17.943Z,18.80
2019-02-26T11:34:17.926Z,18.70
2019-02-26T11:35:20.255Z,18.60
2019-02-26T11:36:17.916Z,19.10
2019-02-26T11:37:17.921Z,19.30
2019-02-26T11:38:19.710Z,18.70
2019-02-26T11:39:17.915Z,18.70
2019-02-26T11:40:19.773Z,17.80
2019-02-26T11:41:17.912Z,18.60
2019-02-26T11:42:18.538Z,19.10
2019-02-26T11:43:22.572Z,19.40
2019-02-26T11:44:20.606Z,18.70
2019-02-26T11:45:19.365Z,18.90
2019-02-26T11:46:20.000Z,22.00
2019-02-26T11:47:18.344Z,18.80
2019-02-26T11:48:17.982Z,19.30
2019-02-26T11:49:19.398Z,17.80
2019-02-26T11:50:17.921Z,19.00
2019-02-26T11:51:19.958Z,18.70
2019-02-26T11:52:20.167Z,17.50
2019-02-26T11:53:17.913Z,18.90
2019-02-26T11:54:17.918Z,19.30
2019-02-26T11:55:17.917Z,18.50
2019-02-26T11:56:20.743Z,18.50
2019-02-26T11:57:17.970Z,17.90
2019-02-26T11:58:19.916Z,18.70
2019-02-26T11:59:19.507Z,18.40
2019-02-26T12:00:25.486Z,18.20
2019-02-26T12:01:17.917Z,17.60
2019-02-26T12:02:25.396Z,17.60
2019-02-26T12:03:17.916Z,18.00
2019-02-26T12:04:17.914Z,18.40
2019-02-26T12:05:17.920Z,17.90
2019-02-26T12:06:17.922Z,17.90
2019-02-26T12:07:17.926Z,18.00
2019-02-26T12:08:20.055Z,17.20
2019-02-26T12:09:17.920Z,17.80
2019-02-26T12:10:17.919Z,17.40
2019-02-26T12:11:20.274Z,17.70
2019-02-26T12:12:17.922Z,17.10
2019-02-26T12:13:19.929Z,15.50
2019-02-26T12:14:20.403Z,16.30
2019-02-26T12:15:17.933Z,16.70
2019-02-26T12:16:17.928Z,16.80
2019-02-26T12:17:17.935Z,16.10
2019-02-26T12:18:19.873Z,16.80
2019-02-26T12:19:17.936Z,16.40
2019-02-26T12:20:19.573Z,17.00
2019-02-26T12:21:17.938Z,16.40
2019-02-26T12:22:19.875Z,16.00
2019-02-26T12:23:19.899Z,15.40
2019-02-26T12:24:17.943Z,15.40
2019-02-26T12:25:17.949Z,15.50
2019-02-26T12:26:19.174Z,15.80
2019-02-26T12:27:19.076Z,17.50
2019-02-26T12:28:17.956Z,16.00
2019-02-26T12:29:18.704Z,15.80
2019-02-26T12:30:18.129Z,15.80
2019-02-26T12:31:17.995Z,13.60
2019-02-26T12:32:19.983Z,15.30
2019-02-26T12:33:17.979Z,15.60
2019-02-26T12:34:20.766Z,14.00
2019-02-26T12:35:18.108Z,14.40
2019-02-26T12:36:17.986Z,14.60
2019-02-26T12:37:17.996Z,14.20
2019-02-26T12:38:21.309Z,14.10
2019-02-26T12:39:18.767Z,13.80
2019-02-26T12:40:19.459Z,13.60
2019-02-26T12:42:00.887Z,13.30
2019-02-26T12:43:02.122Z,14.20
2019-02-26T12:44:02.269Z,14.00
2019-02-26T12:45:03.823Z,14.70
2019-02-26T12:46:01.375Z,14.80
2019-02-26T12:47:43.883Z,13.50
2019-02-26T12:48:44.891Z,13.50
2019-02-26T12:49:45.080Z,14.30
2019-02-26T12:50:42.965Z,13.90
2019-02-26T12:51:42.922Z,14.30
2019-02-26T12:52:44.787Z,13.80
2019-02-26T12:53:44.136Z,13.10
2019-02-26T12:54:42.964Z,14.00
2019-02-26T12:55:45.987Z,13.60
2019-02-26T12:56:42.973Z,13.50
2019-02-26T12:57:43.885Z,13.60
2019-02-26T12:58:45.125Z,14.20
2019-02-26T12:59:42.998Z,13.50
2019-02-26T13:00:43.013Z,13.20
2019-02-26T13:01:46.216Z,13.10
2019-02-26T13:02:43.821Z,13.60
2019-02-26T13:03:46.368Z,13.60
2019-02-26T13:04:44.531Z,13.00
2019-02-26T13:05:45.787Z,12.70
2019-02-26T13:06:47.748Z,12.60
2019-02-26T13:07:43.091Z,12.20
2019-02-26T13:08:47.049Z,10.20
2019-02-26T13:09:50.508Z,9.50
2019-02-26T13:10:46.547Z,9.10
2019-02-26T13:12:00.184Z,9.40
2019-02-26T13:12:47.233Z,9.00
2019-02-26T13:13:44.763Z,9.90
2019-02-26T13:14:43.182Z,7.10
2019-02-26T13:15:43.203Z,8.20
2019-02-26T13:16:46.336Z,8.40
2019-02-26T13:17:44.505Z,7.50
2019-02-26T13:18:44.709Z,8.20
2019-02-26T13:19:43.243Z,8.70
2019-02-26T13:20:43.266Z,8.90
2019-02-26T13:21:43.275Z,9.10
2019-02-26T13:23:43.294Z,9.00
2019-02-26T13:27:47.065Z,10.10
2019-02-26T13:44:44.756Z,10.10
2019-02-26T13:45:44.768Z,10.20
2019-02-26T14:12:38.448Z,10.50
2019-02-26T14:13:38.462Z,10.20
2019-02-26T14:14:38.470Z,10.40
2019-02-26T14:15:38.484Z,11.60
2019-02-26T14:16:38.488Z,11.70
2019-02-26T14:17:38.501Z,11.70
2019-02-26T14:18:38.810Z,11.80
2019-02-26T14:19:38.526Z,12.40
2019-02-26T14:20:38.532Z,11.90
2019-02-26T14:21:38.546Z,11.40
2019-02-26T14:22:38.555Z,11.70
2019-02-26T14:23:38.566Z,12.20
2019-02-26T14:24:38.574Z,11.10
2019-02-26T14:25:38.588Z,10.90
2019-02-26T14:26:38.596Z,10.60
2019-02-26T14:27:38.610Z,10.60
2019-02-26T14:28:38.619Z,10.60
2019-02-26T14:29:38.635Z,10.50
2019-02-26T14:30:38.641Z,9.80
2019-02-26T14:31:38.656Z,9.60
2019-02-26T14:32:38.665Z,10.10
2019-02-26T14:33:38.678Z,11.20
2019-02-26T14:34:38.689Z,11.20
2019-02-26T14:35:38.699Z,11.50
2019-02-26T14:36:38.707Z,11.50
2019-02-26T14:37:41.746Z,11.20
2019-02-26T14:38:38.729Z,11.80
2019-02-26T14:39:38.744Z,10.90
2019-02-26T15:18:57.076Z,17.10
2019-02-26T15:19:57.084Z,16.90
2019-02-26T15:20:57.085Z,17.30
2019-02-26T16:49:12.827Z,17.40
2019-02-26T16:50:13.360Z,16.90
2019-02-26T16:51:12.823Z,17.70
2019-02-26T16:52:12.821Z,16.80
2019-02-26T16:53:12.825Z,17.50
2019-02-26T16:54:12.818Z,16.70
2019-02-26T16:55:14.153Z,17.40
2019-02-26T16:56:12.818Z,17.70
2019-02-26T16:57:12.815Z,16.90
2019-02-26T16:58:12.815Z,17.70
2019-02-26T16:59:12.813Z,16.50
2019-02-26T17:00:15.613Z,17.90
2019-02-26T17:01:12.808Z,17.70
2019-02-26T17:02:12.808Z,17.20
2019-02-26T17:03:12.805Z,17.60
2019-02-26T17:04:12.807Z,17.00
2019-02-26T17:05:15.021Z,16.90
2019-02-26T17:06:12.805Z,16.90
2019-02-26T17:07:12.807Z,17.40
2019-02-26T17:17:05.063Z,17.00
2019-02-26T17:19:22.541Z,17.40
2019-02-26T17:20:23.232Z,17.30
2019-02-26T17:21:22.577Z,17.40
2019-02-26T17:22:22.539Z,17.30
2019-02-26T17:23:22.533Z,17.00
2019-02-26T17:24:22.536Z,17.00
2019-02-26T17:25:27.528Z,15.70
2019-02-26T17:26:22.536Z,16.60
2019-02-26T17:27:22.530Z,16.70
2019-02-26T17:28:22.529Z,17.20
2019-02-26T17:29:22.526Z,16.60
2019-02-26T17:30:23.945Z,17.00
2019-02-26T17:31:22.520Z,16.10
2019-02-26T17:32:22.521Z,16.90
2019-02-26T17:33:22.668Z,16.50
2019-02-26T17:34:23.509Z,17.20
2019-02-26T17:35:22.515Z,16.70
2019-02-26T17:36:22.515Z,17.20
2019-02-26T17:37:22.511Z,17.10
2019-02-26T17:38:22.515Z,16.90
2019-02-26T17:39:23.680Z,17.30
2019-02-26T17:40:22.511Z,16.90
2019-02-26T17:41:22.507Z,16.60
2019-02-26T17:42:22.506Z,16.90
2019-02-26T17:43:22.816Z,17.40
2019-02-26T17:44:22.513Z,17.50
2019-02-26T17:45:22.499Z,16.90
2019-02-26T17:46:22.506Z,16.70
2019-02-26T17:47:22.505Z,17.30
2019-02-26T17:48:22.507Z,16.40
2019-02-26T17:49:22.506Z,16.10
2019-02-26T17:50:22.492Z,16.70
2019-02-26T17:51:22.488Z,17.70
2019-02-26T17:52:22.488Z,15.90
2019-02-26T17:53:22.485Z,17.50
2019-02-26T17:54:22.481Z,17.30
2019-02-26T17:55:22.478Z,16.90
2019-02-26T17:56:26.292Z,16.40
2019-02-26T17:57:22.474Z,17.20
2019-02-26T17:58:22.726Z,16.90
2019-02-26T17:59:22.471Z,16.80
2019-02-26T18:00:22.480Z,16.40
2019-02-26T18:01:22.469Z,16.40
2019-02-26T18:02:22.464Z,15.90
2019-02-26T18:03:22.460Z,19.10
2019-02-26T18:04:22.913Z,17.00
2019-02-26T18:05:22.459Z,16.40
2019-02-26T18:06:22.463Z,16.30
2019-02-26T18:07:22.461Z,16.30
2019-02-26T18:08:22.464Z,16.20
2019-02-26T18:09:22.446Z,16.90
2019-02-26T18:10:22.448Z,17.00
2019-02-26T18:11:23.699Z,16.20
2019-02-26T18:12:22.444Z,17.10
2019-02-26T18:13:22.439Z,17.80
2019-02-26T18:14:22.436Z,16.40
2019-02-26T18:15:22.433Z,17.50
2019-02-26T18:23:00.746Z,17.40
2019-02-26T18:49:05.148Z,17.30
2019-02-26T19:36:59.693Z,17.10
2019-02-26T19:52:28.276Z,17.60
